Time;durP1;ratioP1;P1;durP2;ratioP2;P2;SDS_P1;SDS_P2;PMS_P1;PMS_P2;Temp;Humidity;BMP_temperature;BMP_pressure;BME280_temperature;BME280_humidity;BME280_pressure;Samples;Min_cycle;Max_cycle;Signal;HPM_P1;HPM_P2
2021/08/24 00:00:46;;;;;;;4.35;2.17;;;18.40;95.00;;;;;;5040891;28;20028;-86
2021/08/24 00:03:11;;;;;;;4.22;1.88;;;18.40;95.00;;;;;;5057949;28;20162;-85
2021/08/24 00:05:37;;;;;;;3.13;1.63;;;18.30;95.10;;;;;;5040363;28;20028;-85
2021/08/24 00:11:27;;;;;;;3.53;2.03;;;18.30;94.60;;;;;;5057895;28;20079;-85
2021/08/24 00:13:52;;;;;;;5.35;1.80;;;18.30;95.00;;;;;;5054810;28;20394;-85
2021/08/24 00:16:19;;;;;;;3.33;1.83;;;18.30;94.90;;;;;;5046296;28;20021;-85
2021/08/24 00:18:45;;;;;;;4.68;2.38;;;18.20;95.00;;;;;;5060260;28;20021;-85
2021/08/24 00:21:11;;;;;;;3.35;1.80;;;18.20;95.00;;;;;;5060523;28;20036;-85
2021/08/24 00:23:37;;;;;;;3.88;1.83;;;18.20;95.00;;;;;;5061198;28;20031;-85
2021/08/24 00:26:03;;;;;;;3.15;1.90;;;18.20;95.00;;;;;;5061587;28;20025;-85
2021/08/24 00:28:32;;;;;;;3.10;1.90;;;18.10;95.00;;;;;;5046233;28;20032;-85
2021/08/24 00:30:57;;;;;;;3.40;2.00;;;18.10;95.10;;;;;;5050106;28;20025;-85
2021/08/24 00:33:24;;;;;;;3.75;1.80;;;18.10;95.00;;;;;;5061220;28;20032;-85
2021/08/24 00:35:50;;;;;;;5.75;2.58;;;18.10;95.00;;;;;;5064976;28;20490;-85
2021/08/24 00:38:20;;;;;;;4.68;2.45;;;18.10;95.00;;;;;;5061860;28;20021;-85
2021/08/24 00:41:00;;;;;;;5.03;2.20;;;18.00;95.10;;;;;;5058372;28;20029;-85
2021/08/24 00:43:28;;;;;;;3.65;2.00;;;18.00;95.50;;;;;;5062303;28;20398;-85
2021/08/24 00:46:07;;;;;;;4.55;2.15;;;18.00;95.80;;;;;;5060131;28;20096;-86
2021/08/24 00:48:34;;;;;;;4.80;2.10;;;18.00;95.80;;;;;;5057868;28;20132;-85
2021/08/24 00:51:00;;;;;;;3.05;2.10;;;17.90;95.50;;;;;;5039386;28;20028;-85
2021/08/24 00:53:30;;;;;;;3.00;1.80;;;17.90;95.50;;;;;;5055455;28;20082;-85
2021/08/24 00:55:58;;;;;;;3.55;1.92;;;17.90;95.40;;;;;;5057298;28;20032;-85
2021/08/24 00:58:24;;;;;;;3.47;1.75;;;17.90;95.40;;;;;;5056471;28;20021;-85
2021/08/24 01:00:49;;;;;;;5.75;2.25;;;17.90;95.40;;;;;;5056291;28;20478;-85
2021/08/24 01:03:21;;;;;;;3.55;2.25;;;17.80;95.30;;;;;;5055480;28;20036;-85
2021/08/24 01:05:49;;;;;;;3.90;2.00;;;17.80;95.20;;;;;;5055646;28;20057;-85
2021/08/24 01:08:44;;;;;;;4.20;2.08;;;17.80;95.30;;;;;;5056311;28;20056;-85
2021/08/24 01:11:19;;;;;;;2.83;2.03;;;17.80;95.00;;;;;;5057129;28;20025;-85
2021/08/24 01:14:13;;;;;;;5.68;1.95;;;17.80;95.30;;;;;;5060955;28;20019;-85
2021/08/24 01:16:55;;;;;;;4.60;2.35;;;17.70;95.00;;;;;;5077552;28;20466;-85
2021/08/24 01:19:49;;;;;;;3.63;2.03;;;17.70;95.10;;;;;;5061457;28;20028;-85
2021/08/24 01:22:27;;;;;;;6.20;2.33;;;17.70;95.00;;;;;;5077913;28;20029;-85
2021/08/24 01:24:55;;;;;;;3.63;2.03;;;17.60;95.20;;;;;;5060707;28;20426;-85
2021/08/24 01:27:36;;;;;;;5.78;2.28;;;17.60;95.40;;;;;;5077780;28;20104;-84
2021/08/24 01:30:08;;;;;;;4.45;2.00;;;17.60;95.20;;;;;;5077258;28;20024;-85
2021/08/24 01:32:55;;;;;;;4.68;2.30;;;17.60;95.50;;;;;;5062405;28;20475;-85
2021/08/24 01:35:43;;;;;;;4.70;2.10;;;17.60;95.40;;;;;;5077526;28;20390;-85
2021/08/24 01:38:26;;;;;;;4.07;2.20;;;17.50;95.30;;;;;;5059892;28;20358;-85
2021/08/24 01:41:15;;;;;;;4.47;2.50;;;17.50;95.40;;;;;;5077125;28;20462;-85
2021/08/24 01:44:20;;;;;;;4.53;2.40;;;17.50;95.30;;;;;;5076921;28;20017;-85
2021/08/24 01:47:07;;;;;;;3.85;2.28;;;17.50;95.30;;;;;;5060776;28;20477;-85
2021/08/24 01:49:42;;;;;;;5.40;2.55;;;17.50;95.50;;;;;;5076132;28;20131;-85
2021/08/24 01:52:11;;;;;;;6.13;2.65;;;17.50;95.60;;;;;;5077147;28;20021;-85
2021/08/24 01:54:52;;;;;;;5.72;2.45;;;17.40;95.80;;;;;;5060890;28;20020;-85
2021/08/24 01:57:29;;;;;;;5.17;2.63;;;17.40;95.60;;;;;;5078296;28;20013;-85
2021/08/24 02:00:01;;;;;;;4.22;2.45;;;17.40;95.70;;;;;;5077873;28;20340;-85
2021/08/24 02:02:35;;;;;;;5.82;2.55;;;17.40;95.90;;;;;;5076795;28;20020;-85
2021/08/24 02:05:12;;;;;;;5.25;2.95;;;17.40;95.80;;;;;;5077706;28;20055;-85
2021/08/24 02:07:39;;;;;;;4.88;2.47;;;17.30;95.80;;;;;;5074313;28;20107;-85
2021/08/24 02:10:09;;;;;;;5.30;2.67;;;17.30;96.00;;;;;;5043561;28;20546;-85
2021/08/24 02:12:38;;;;;;;6.13;2.53;;;17.30;96.00;;;;;;5057513;28;20025;-86
2021/08/24 02:15:05;;;;;;;7.30;2.40;;;17.30;96.00;;;;;;5057751;28;20478;-85
2021/08/24 02:17:32;;;;;;;5.15;2.60;;;17.30;96.10;;;;;;5058168;28;20044;-84
2021/08/24 02:20:06;;;;;;;4.93;2.92;;;17.20;96.00;;;;;;5057109;28;20092;-85
2021/08/24 02:22:37;;;;;;;4.22;2.67;;;17.20;96.10;;;;;;5058244;28;20119;-85
2021/08/24 02:28:31;;;;;;;7.13;2.88;;;17.20;95.90;;;;;;5059900;28;20027;-85
2021/08/24 02:31:44;;;;;;;6.72;2.90;;;17.10;96.20;;;;;;5060096;28;20104;-85
2021/08/24 02:34:20;;;;;;;4.38;2.50;;;17.10;96.00;;;;;;4990796;28;20063;-85
2021/08/24 02:36:59;;;;;;;5.82;2.53;;;17.10;96.30;;;;;;5044755;28;20056;-85
2021/08/24 02:39:50;;;;;;;6.22;3.00;;;17.10;96.10;;;;;;5040094;28;20381;-85
2021/08/24 02:42:30;;;;;;;6.03;2.85;;;17.10;96.50;;;;;;5049529;28;20037;-86
2021/08/24 02:45:05;;;;;;;5.03;2.85;;;17.00;96.30;;;;;;5060230;28;20363;-85
2021/08/24 02:47:31;;;;;;;6.70;3.60;;;17.00;96.50;;;;;;5062558;28;20024;-86
2021/08/24 02:49:57;;;;;;;6.78;3.08;;;17.00;96.60;;;;;;5048164;28;20048;-85
2021/08/24 02:52:23;;;;;;;6.35;2.88;;;17.00;96.60;;;;;;5045936;28;20033;-85
2021/08/24 02:54:52;;;;;;;6.03;3.22;;;17.00;96.60;;;;;;5032084;28;20034;-85
2021/08/24 02:57:17;;;;;;;8.40;3.20;;;17.00;96.70;;;;;;5064818;28;20039;-85
2021/08/24 02:59:43;;;;;;;5.43;3.25;;;17.00;96.70;;;;;;5063156;28;20021;-86
2021/08/24 03:02:11;;;;;;;7.22;3.35;;;17.00;96.70;;;;;;5064468;28;20036;-85
2021/08/24 03:04:38;;;;;;;7.47;3.03;;;17.00;96.80;;;;;;5042952;28;20056;-85
2021/08/24 03:07:22;;;;;;;7.03;3.45;;;17.00;96.80;;;;;;5077833;28;20060;-85
2021/08/24 03:09:49;;;;;;;7.55;3.63;;;16.90;96.70;;;;;;5082364;28;20453;-85
2021/08/24 03:12:39;;;;;;;5.10;3.00;;;16.90;97.10;;;;;;5083426;28;20048;-85
2021/08/24 03:15:15;;;;;;;7.10;3.40;;;16.90;96.70;;;;;;5069497;28;20458;-85
2021/08/24 03:17:50;;;;;;;6.05;3.63;;;16.90;96.80;;;;;;5069741;28;20025;-85
2021/08/24 03:20:19;;;;;;;7.03;3.47;;;16.90;96.90;;;;;;5067755;28;20060;-85
2021/08/24 03:22:46;;;;;;;7.40;3.88;;;16.90;97.00;;;;;;5065683;28;20054;-85
2021/08/24 03:25:13;;;;;;;5.38;3.38;;;16.90;97.10;;;;;;5081273;28;20028;-85
2021/08/24 03:27:43;;;;;;;9.45;3.72;;;16.90;97.10;;;;;;5065362;28;20024;-85
2021/08/24 03:30:11;;;;;;;7.23;3.50;;;16.90;97.10;;;;;;5060617;28;20028;-85
2021/08/24 03:32:37;;;;;;;6.55;3.78;;;16.80;97.10;;;;;;5060707;28;20050;-85
2021/08/24 03:35:05;;;;;;;5.18;3.83;;;16.80;97.20;;;;;;5060923;28;20025;-85
2021/08/24 03:37:31;;;;;;;5.85;3.58;;;16.80;97.20;;;;;;5081059;28;20021;-85
2021/08/24 03:39:56;;;;;;;5.40;3.65;;;16.80;97.20;;;;;;5079625;28;20021;-85
2021/08/24 03:42:22;;;;;;;5.40;3.45;;;16.80;97.20;;;;;;5079404;28;20021;-85
2021/08/24 03:44:48;;;;;;;8.07;3.65;;;16.80;97.30;;;;;;5079302;28;20044;-85
2021/08/24 03:47:15;;;;;;;6.18;3.60;;;16.80;97.30;;;;;;5062067;28;20025;-85
2021/08/24 03:49:41;;;;;;;7.03;3.78;;;16.80;97.30;;;;;;5076237;28;20063;-85
2021/08/24 03:52:07;;;;;;;7.90;4.13;;;16.80;97.40;;;;;;5080415;28;20040;-85
2021/08/24 03:54:33;;;;;;;8.63;4.13;;;16.80;97.40;;;;;;5064242;28;20028;-85
2021/08/24 03:56:59;;;;;;;6.15;4.05;;;16.80;97.40;;;;;;5064141;28;20083;-85
2021/08/24 03:59:25;;;;;;;5.90;4.03;;;16.70;97.40;;;;;;5061646;28;20078;-85
2021/08/24 04:01:51;;;;;;;8.57;4.07;;;16.70;97.40;;;;;;5076109;28;20032;-85
2021/08/24 04:04:16;;;;;;;6.13;3.80;;;16.70;97.40;;;;;;5076713;28;20029;-85
2021/08/24 04:06:42;;;;;;;6.10;4.07;;;16.70;97.50;;;;;;5071678;28;20056;-85
2021/08/24 04:09:08;;;;;;;9.05;3.90;;;16.70;97.50;;;;;;5042910;28;20054;-85
2021/08/24 04:11:33;;;;;;;7.82;4.70;;;16.70;97.50;;;;;;5044635;28;20036;-85
2021/08/24 04:14:00;;;;;;;7.20;4.38;;;16.70;97.60;;;;;;5061395;28;20044;-85
2021/08/24 04:16:25;;;;;;;6.07;4.10;;;16.70;97.60;;;;;;5039463;28;20024;-85
2021/08/24 04:22:18;;;;;;;8.32;4.25;;;16.60;97.50;;;;;;5057029;28;20032;-85
2021/08/24 04:24:44;;;;;;;;;;;16.60;97.70;;;;;;5055693;28;20435;-85
2021/08/24 04:27:09;;;;;;;8.82;4.85;;;16.60;97.50;;;;;;5039970;28;19916;-85
2021/08/24 04:29:36;;;;;;;6.80;4.20;;;16.60;97.70;;;;;;5042582;28;20120;-85
2021/08/24 04:32:05;;;;;;;7.28;4.30;;;16.60;97.90;;;;;;5055037;28;20059;-86
2021/08/24 04:34:31;;;;;;;6.18;4.15;;;16.60;97.90;;;;;;5054831;28;20020;-85
2021/08/24 04:36:57;;;;;;;8.45;4.53;;;16.60;97.90;;;;;;5056809;28;20029;-85
2021/08/24 04:39:23;;;;;;;8.45;4.30;;;16.50;97.90;;;;;;5040626;28;20386;-85
2021/08/24 04:41:49;;;;;;;8.63;4.40;;;16.50;97.90;;;;;;5056984;28;20029;-86
2021/08/24 04:44:15;;;;;;;6.57;4.25;;;16.50;98.00;;;;;;5058263;28;20016;-85
2021/08/24 04:46:41;;;;;;;6.53;4.50;;;16.50;98.00;;;;;;5039167;28;20367;-86
2021/08/24 04:49:06;;;;;;;9.27;4.95;;;16.50;98.00;;;;;;5058407;28;20064;-86
2021/08/24 04:51:32;;;;;;;7.53;4.40;;;16.50;98.00;;;;;;5042735;28;20466;-86
2021/08/24 04:53:58;;;;;;;8.07;4.63;;;16.50;98.10;;;;;;5060470;28;20025;-84
2021/08/24 04:56:23;;;;;;;8.65;4.95;;;16.50;98.10;;;;;;5056370;28;20036;-85
2021/08/24 04:58:49;;;;;;;8.35;4.60;;;16.50;98.10;;;;;;5038565;28;20470;-85
2021/08/24 05:01:15;;;;;;;8.40;4.20;;;16.50;98.10;;;;;;5037339;28;20021;-85
2021/08/24 05:03:40;;;;;;;7.53;4.80;;;16.50;98.20;;;;;;5040843;28;20021;-85
2021/08/24 05:06:06;;;;;;;7.85;4.40;;;16.40;98.20;;;;;;5067434;23;20044;-84
2021/08/24 05:08:32;;;;;;;8.25;4.30;;;16.40;98.50;;;;;;5029141;28;20028;-84
2021/08/24 05:10:58;;;;;;;6.78;4.05;;;16.40;98.20;;;;;;5073298;28;20032;-84
2021/08/24 05:13:24;;;;;;;7.03;4.72;;;16.40;98.30;;;;;;5055412;28;20021;-84
2021/08/24 05:15:49;;;;;;;7.18;4.25;;;16.50;98.30;;;;;;5039984;28;20048;-84
2021/08/24 05:18:15;;;;;;;8.63;4.60;;;16.50;98.40;;;;;;5048971;28;20035;-84
2021/08/24 05:20:41;;;;;;;6.80;4.70;;;16.50;98.40;;;;;;5074555;28;20020;-84
2021/08/24 05:23:06;;;;;;;7.57;5.32;;;16.40;98.40;;;;;;5034022;28;20032;-84
2021/08/24 05:25:32;;;;;;;10.20;4.85;;;16.50;98.50;;;;;;5046797;28;20035;-84
2021/08/24 05:27:58;;;;;;;6.22;4.93;;;16.50;98.50;;;;;;5043356;28;20123;-84
2021/08/24 05:30:25;;;;;;;6.72;4.50;;;16.40;98.50;;;;;;5071487;28;20043;-84
2021/08/24 05:32:52;;;;;;;8.77;4.60;;;16.40;98.50;;;;;;5025641;28;20028;-84
2021/08/24 05:35:19;;;;;;;8.15;4.50;;;16.40;98.60;;;;;;5062809;28;20013;-83
2021/08/24 05:37:44;;;;;;;6.20;4.55;;;16.40;98.60;;;;;;5076719;28;20020;-83
2021/08/24 05:40:11;;;;;;;5.70;4.35;;;16.40;98.60;;;;;;5062012;28;20028;-83
2021/08/24 05:42:38;;;;;;;7.20;4.05;;;16.50;98.70;;;;;;5042297;28;20040;-84
2021/08/24 05:45:05;;;;;;;6.43;4.25;;;16.50;98.70;;;;;;5023185;28;20599;-84
2021/08/24 05:47:33;;;;;;;6.88;4.30;;;16.50;98.80;;;;;;5038463;28;20032;-85
2021/08/24 05:49:59;;;;;;;9.88;4.78;;;16.50;98.80;;;;;;5043738;28;20021;-84
2021/08/24 05:52:26;;;;;;;8.88;4.53;;;16.50;98.80;;;;;;5030310;28;20362;-84
2021/08/24 05:54:51;;;;;;;7.25;4.18;;;16.50;98.80;;;;;;5061189;28;20034;-84
2021/08/24 05:57:19;;;;;;;8.13;4.28;;;16.50;98.90;;;;;;5068321;28;20020;-84
2021/08/24 05:59:45;;;;;;;5.43;3.90;;;16.50;98.90;;;;;;5061120;28;20033;-84
2021/08/24 06:02:11;;;;;;;7.07;4.32;;;16.50;98.90;;;;;;5068031;28;20056;-84
2021/08/24 06:04:36;;;;;;;6.38;4.10;;;16.60;98.90;;;;;;5051795;28;20115;-84
2021/08/24 06:07:03;;;;;;;7.20;3.90;;;16.60;99.00;;;;;;5053998;28;20048;-84
2021/08/24 06:09:28;;;;;;;8.30;4.38;;;16.60;99.00;;;;;;5044977;28;20037;-84
2021/08/24 06:11:54;;;;;;;6.30;4.07;;;16.60;99.00;;;;;;5035775;28;20424;-84
2021/08/24 06:14:22;;;;;;;8.30;4.22;;;16.60;99.30;;;;;;5055320;28;20052;-83
2021/08/24 06:16:54;;;;;;;5.50;3.78;;;16.60;99.00;;;;;;5068110;28;20022;-84
2021/08/24 06:19:20;;;;;;;6.75;4.15;;;16.70;99.10;;;;;;5040900;28;20020;-84
2021/08/24 06:21:46;;;;;;;9.52;4.05;;;16.70;99.10;;;;;;5050867;28;20046;-84
2021/08/24 06:24:12;;;;;;;5.25;3.75;;;16.70;99.10;;;;;;5054410;28;20025;-84
2021/08/24 06:26:37;;;;;;;7.22;4.25;;;16.70;99.10;;;;;;5033269;28;20497;-84
2021/08/24 06:29:04;;;;;;;6.30;3.88;;;16.70;99.20;;;;;;5034935;28;20029;-84
2021/08/24 06:31:31;;;;;;;6.78;3.92;;;16.70;99.20;;;;;;5056915;28;20386;-83
2021/08/24 06:33:59;;;;;;;5.43;3.60;;;16.70;99.20;;;;;;5038722;28;20123;-84
2021/08/24 06:36:25;;;;;;;5.65;3.80;;;16.80;99.30;;;;;;5059206;28;20057;-85
2021/08/24 06:38:51;;;;;;;6.60;3.80;;;16.80;99.30;;;;;;5052605;28;20146;-85
2021/08/24 06:41:18;;;;;;;5.43;3.20;;;16.80;99.30;;;;;;5067672;28;20059;-85
2021/08/24 06:43:44;;;;;;;5.53;3.45;;;16.90;99.40;;;;;;5064202;28;20110;-85
2021/08/24 06:46:10;;;;;;;7.07;4.30;;;16.90;99.40;;;;;;5055045;28;20059;-84
2021/08/24 06:48:36;;;;;;;8.07;4.15;;;16.90;99.40;;;;;;5037831;28;20240;-84
2021/08/24 06:51:03;;;;;;;7.70;4.22;;;16.90;99.40;;;;;;5054617;28;20033;-85
2021/08/24 06:53:28;;;;;;;6.03;4.20;;;17.00;99.50;;;;;;5054261;28;20025;-85
2021/08/24 06:55:54;;;;;;;6.70;4.10;;;17.00;99.60;;;;;;5038204;28;20025;-84
2021/08/24 06:58:20;;;;;;;6.60;4.18;;;17.00;99.80;;;;;;5036498;28;20493;-85
2021/08/24 07:00:48;;;;;;;6.45;3.88;;;17.00;99.60;;;;;;5048420;28;20035;-85
2021/08/24 07:03:14;;;;;;;7.68;3.88;;;17.10;99.70;;;;;;5060269;28;20529;-85
2021/08/24 07:05:44;;;;;;;7.03;4.25;;;17.10;99.70;;;;;;5046856;28;20017;-84
2021/08/24 07:08:10;;;;;;;6.03;4.07;;;17.20;99.80;;;;;;5055040;28;20481;-84
2021/08/24 07:10:36;;;;;;;8.20;4.28;;;17.20;99.80;;;;;;5070084;28;20051;-85
2021/08/24 07:13:01;;;;;;;5.57;3.90;;;17.30;99.80;;;;;;5034101;28;20033;-85
2021/08/24 07:15:38;;;;;;;9.85;4.80;;;17.30;99.80;;;;;;5050128;28;20050;-85
2021/08/24 07:18:05;;;;;;;7.53;4.53;;;17.40;99.90;;;;;;5049672;28;20021;-84
2021/08/24 07:20:30;;;;;;;5.28;4.13;;;17.40;99.90;;;;;;5047385;28;20374;-84
2021/08/24 07:22:57;;;;;;;6.18;3.70;;;17.50;99.90;;;;;;5035146;28;20020;-84
2021/08/24 07:25:28;;;;;;;6.07;3.88;;;17.50;99.90;;;;;;5053488;28;20086;-84
2021/08/24 07:27:54;;;;;;;8.13;3.90;;;17.50;99.90;;;;;;5056006;28;20178;-84
2021/08/24 07:30:20;;;;;;;5.65;3.83;;;17.60;99.90;;;;;;5075801;28;20042;-83
2021/08/24 07:32:46;;;;;;;5.82;3.70;;;17.70;99.90;;;;;;5040534;28;20047;-84
2021/08/24 07:35:13;;;;;;;5.50;3.45;;;17.70;99.90;;;;;;5025426;28;20047;-85
2021/08/24 07:37:39;;;;;;;4.72;3.65;;;17.80;99.90;;;;;;5058604;28;20020;-85
2021/08/24 07:40:08;;;;;;;6.28;4.10;;;17.80;99.90;;;;;;5044078;28;20025;-85
2021/08/24 07:42:34;;;;;;;6.03;3.92;;;17.90;99.90;;;;;;5084518;28;20035;-86
2021/08/24 07:44:59;;;;;;;6.45;3.83;;;18.00;99.90;;;;;;5061687;28;20104;-85
2021/08/24 07:47:25;;;;;;;12.10;4.85;;;18.00;99.90;;;;;;5057274;28;20139;-85
2021/08/24 07:49:51;;;;;;;5.25;3.63;;;18.10;99.90;;;;;;5054963;28;20385;-86
2021/08/24 07:52:24;;;;;;;6.63;3.97;;;18.20;99.90;;;;;;5056429;28;20032;-87
2021/08/24 07:54:49;;;;;;;5.68;3.75;;;18.20;99.90;;;;;;5049361;28;20102;-83
2021/08/24 07:57:15;;;;;;;6.47;3.88;;;18.30;99.90;;;;;;5039848;28;20465;-82
2021/08/24 07:59:41;;;;;;;6.10;3.95;;;18.30;99.90;;;;;;5040027;28;20112;-83
2021/08/24 08:02:13;;;;;;;5.95;3.95;;;18.40;99.90;;;;;;5039902;28;20484;-83
2021/08/24 08:04:39;;;;;;;6.95;4.10;;;18.50;99.90;;;;;;5054349;28;20108;-84
2021/08/24 08:07:05;;;;;;;5.78;3.65;;;18.50;99.90;;;;;;5046901;28;20123;-84
2021/08/24 08:09:30;;;;;;;5.45;3.50;;;18.60;99.90;;;;;;5043159;28;20094;-84
2021/08/24 08:11:56;;;;;;;5.07;3.42;;;18.70;99.90;;;;;;5044625;28;20033;-84
2021/08/24 08:14:22;;;;;;;5.38;3.50;;;18.70;99.90;;;;;;5046305;28;20047;-84
2021/08/24 08:16:47;;;;;;;5.90;3.50;;;18.80;99.90;;;;;;5035007;28;20028;-84
2021/08/24 08:19:13;;;;;;;5.13;3.22;;;18.80;99.90;;;;;;5056045;28;20121;-83
2021/08/24 08:21:40;;;;;;;5.45;3.47;;;18.90;99.90;;;;;;5072341;28;20119;-85
2021/08/24 08:24:06;;;;;;;4.90;3.40;;;19.00;99.90;;;;;;5056364;28;20032;-84
2021/08/24 08:26:33;;;;;;;6.80;3.20;;;19.10;99.90;;;;;;5074918;28;20107;-84
2021/08/24 08:29:03;;;;;;;5.72;3.10;;;19.10;99.90;;;;;;5057231;28;20020;-84
2021/08/24 08:31:31;;;;;;;4.07;2.72;;;19.20;99.90;;;;;;5057095;28;20119;-84
2021/08/24 08:33:56;;;;;;;5.80;3.35;;;19.30;99.90;;;;;;5039545;28;20059;-85
2021/08/24 08:39:44;;;;;;;4.35;2.47;;;19.50;99.90;;;;;;5074174;28;20031;-84
2021/08/24 08:42:30;;;;;;;3.75;2.60;;;19.60;99.80;;;;;;5027806;28;20032;-85
2021/08/24 08:45:13;;;;;;;3.85;2.30;;;19.70;99.80;;;;;;5096394;28;20028;-85
2021/08/24 08:48:16;;;;;;;3.35;2.50;;;19.70;99.80;;;;;;5095832;28;20107;-85
2021/08/24 08:50:53;;;;;;;3.53;2.50;;;19.80;99.70;;;;;;5054136;28;20029;-85
2021/08/24 08:53:43;;;;;;;4.20;2.70;;;19.90;99.70;;;;;;5055898;28;20437;-85
2021/08/24 08:56:29;;;;;;;5.13;3.10;;;20.00;99.60;;;;;;5057590;28;20411;-85
2021/08/24 08:59:16;;;;;;;4.95;2.88;;;20.10;99.50;;;;;;5045811;28;20424;-85
2021/08/24 09:01:59;;;;;;;3.88;2.35;;;20.20;99.50;;;;;;5040330;28;20021;-85
2021/08/24 09:04:34;;;;;;;4.07;2.65;;;20.30;99.50;;;;;;5049167;28;20103;-85
2021/08/24 09:07:02;;;;;;;4.47;2.53;;;20.30;99.40;;;;;;5058432;28;20057;-85
2021/08/24 09:09:29;;;;;;;5.00;2.67;;;20.40;99.10;;;;;;5056282;28;20016;-85
2021/08/24 09:11:55;;;;;;;4.90;2.80;;;20.50;99.00;;;;;;5040821;28;20033;-86
2021/08/24 09:14:32;;;;;;;4.90;2.80;;;20.50;98.60;;;;;;5045780;28;20020;-86
2021/08/24 09:17:26;;;;;;;4.85;2.60;;;20.50;98.50;;;;;;5043227;28;20029;-86
2021/08/24 09:19:57;;;;;;;6.57;3.08;;;20.60;98.40;;;;;;5051404;28;20029;-86
2021/08/24 09:22:24;;;;;;;4.28;2.40;;;20.70;98.10;;;;;;5067277;28;20058;-86
2021/08/24 09:24:49;;;;;;;5.30;2.92;;;20.70;98.20;;;;;;5036146;28;20032;-86
2021/08/24 09:27:30;;;;;;;4.03;2.50;;;20.80;98.20;;;;;;5027187;28;20469;-86
2021/08/24 09:29:57;;;;;;;5.43;2.90;;;20.90;98.20;;;;;;5051391;28;20029;-86
2021/08/24 09:32:26;;;;;;;6.10;3.50;;;21.00;98.20;;;;;;5053347;28;20029;-86
2021/08/24 09:35:11;;;;;;;5.53;3.17;;;21.10;98.00;;;;;;5037243;28;20024;-86
2021/08/24 09:37:39;;;;;;;7.18;3.53;;;21.10;97.60;;;;;;5057227;28;20013;-86
2021/08/24 09:40:07;;;;;;;4.30;2.60;;;21.10;97.60;;;;;;5054834;28;20048;-86
2021/08/24 09:42:45;;;;;;;6.18;2.55;;;21.20;97.50;;;;;;5022096;28;20029;-87
2021/08/24 09:45:20;;;;;;;4.45;2.42;;;21.30;97.60;;;;;;5039022;28;20123;-86
2021/08/24 09:47:58;;;;;;;5.00;2.50;;;21.40;97.70;;;;;;5055682;28;20382;-86
2021/08/24 09:50:33;;;;;;;3.88;3.00;;;21.40;97.60;;;;;;5037579;28;20032;-87
2021/08/24 09:53:00;;;;;;;5.50;3.13;;;21.50;97.30;;;;;;5037913;28;20028;-87
2021/08/24 09:55:30;;;;;;;5.03;3.33;;;21.60;97.20;;;;;;5038352;28;20071;-87
2021/08/24 09:58:02;;;;;;;5.45;2.83;;;21.70;97.20;;;;;;5040199;28;20466;-86
2021/08/24 10:00:58;;;;;;;6.50;3.75;;;21.70;97.00;;;;;;5039878;28;20028;-87
2021/08/24 10:03:50;;;;;;;6.95;3.92;;;21.80;95.90;;;;;;5043500;28;20382;-87
2021/08/24 10:06:29;;;;;;;7.07;3.33;;;21.80;95.50;;;;;;5041477;28;20052;-85
2021/08/24 10:09:11;;;;;;;4.45;3.10;;;21.80;95.30;;;;;;5056334;28;20028;-86
2021/08/24 10:11:37;;;;;;;4.93;3.05;;;21.80;94.50;;;;;;5071193;28;20033;-85
2021/08/24 10:14:22;;;;;;;5.28;2.92;;;21.90;94.80;;;;;;5037741;28;20025;-85
2021/08/24 10:16:51;;;;;;;4.45;2.70;;;21.90;94.40;;;;;;5055926;28;20031;-85
2021/08/24 10:19:25;;;;;;;5.22;2.92;;;22.00;94.70;;;;;;5074728;28;20017;-85
2021/08/24 10:21:50;;;;;;;4.90;2.67;;;22.00;94.80;;;;;;5054438;28;20033;-85
2021/08/24 10:24:32;;;;;;;3.80;2.45;;;22.10;94.70;;;;;;5053192;28;20043;-84
2021/08/24 10:27:03;;;;;;;5.05;2.38;;;22.10;94.70;;;;;;5064705;28;20035;-85
2021/08/24 10:29:39;;;;;;;4.03;2.47;;;22.20;95.10;;;;;;5054470;28;20026;-84
2021/08/24 10:32:08;;;;;;;5.32;2.55;;;22.20;95.10;;;;;;5054200;28;20024;-85
2021/08/24 10:34:46;;;;;;;5.10;3.15;;;22.30;95.30;;;;;;5055169;28;20017;-84
2021/08/24 10:37:13;;;;;;;4.82;2.50;;;22.30;95.10;;;;;;5040589;28;20029;-85
2021/08/24 10:39:38;;;;;;;2.70;2.22;;;22.40;95.30;;;;;;5060587;28;20021;-86
2021/08/24 10:42:17;;;;;;;3.38;2.40;;;22.40;95.30;;;;;;5043380;28;20025;-85
2021/08/24 10:44:50;;;;;;;3.78;2.22;;;22.50;95.40;;;;;;5059966;28;20359;-85
2021/08/24 10:47:34;;;;;;;4.32;2.35;;;22.60;95.30;;;;;;5064701;28;20021;-85
2021/08/24 10:50:02;;;;;;;4.75;2.42;;;22.60;95.10;;;;;;5065297;28;20028;-85
2021/08/24 10:52:46;;;;;;;3.53;2.45;;;22.70;95.00;;;;;;5060200;28;20032;-85
2021/08/24 10:55:29;;;;;;;4.80;3.13;;;22.70;93.80;;;;;;5060066;28;20024;-85
2021/08/24 10:58:03;;;;;;;5.53;2.80;;;22.80;94.10;;;;;;5059467;28;20465;-85
2021/08/24 11:00:49;;;;;;;4.25;2.42;;;22.80;93.80;;;;;;5060569;28;20024;-86
2021/08/24 11:03:22;;;;;;;3.30;2.13;;;22.80;93.90;;;;;;5062168;28;20028;-85
2021/08/24 11:06:23;;;;;;;4.03;2.20;;;22.90;94.00;;;;;;5136110;22;20244;-84
2021/08/24 11:09:10;;;;;;;3.20;2.10;;;23.00;92.70;;;;;;5078563;28;20472;-84
2021/08/24 11:11:56;;;;;;;3.53;1.98;;;23.00;92.80;;;;;;5079077;28;20028;-83
2021/08/24 11:14:51;;;;;;;2.90;2.13;;;23.00;93.10;;;;;;5078208;28;20031;-83
2021/08/24 11:17:43;;;;;;;3.30;2.00;;;23.10;93.20;;;;;;5049225;28;20024;-84
2021/08/24 11:20:25;;;;;;;3.28;2.25;;;23.10;93.00;;;;;;5049403;28;20048;-84
2021/08/24 11:23:19;;;;;;;3.42;2.15;;;23.20;93.10;;;;;;5080977;28;20032;-85
2021/08/24 11:25:47;;;;;;;3.13;2.10;;;23.20;92.70;;;;;;5048855;28;20046;-84
2021/08/24 11:28:34;;;;;;;3.53;2.17;;;23.20;92.70;;;;;;5070868;28;20087;-82
2021/08/24 11:31:10;;;;;;;2.83;1.90;;;23.30;92.80;;;;;;5064787;28;20024;-81
2021/08/24 11:34:07;;;;;;;3.15;2.13;;;23.40;92.50;;;;;;5071526;28;20461;-81
2021/08/24 11:36:41;;;;;;;2.88;1.92;;;23.40;92.20;;;;;;5049948;28;20035;-81
2021/08/24 11:39:14;;;;;;;2.70;1.80;;;23.50;91.30;;;;;;5066748;28;20380;-82
2021/08/24 11:41:43;;;;;;;4.70;2.40;;;23.50;91.50;;;;;;5077231;28;20036;-82
2021/08/24 11:44:16;;;;;;;3.20;2.13;;;23.60;91.60;;;;;;5067530;28;20023;-88
2021/08/24 11:47:01;;;;;;;4.15;2.20;;;23.60;90.70;;;;;;5094212;28;20017;-82
2021/08/24 11:49:41;;;;;;;3.00;1.80;;;23.60;89.70;;;;;;5062073;28;20020;-83
2021/08/24 11:52:20;;;;;;;4.25;2.50;;;23.70;89.10;;;;;;5056662;28;20020;-83
2021/08/24 11:55:16;;;;;;;3.50;2.22;;;23.70;88.50;;;;;;5075800;28;20055;-82
2021/08/24 11:57:50;;;;;;;3.25;2.22;;;23.70;87.90;;;;;;5079822;28;20029;-82
2021/08/24 12:00:17;;;;;;;3.67;2.45;;;23.80;88.60;;;;;;5047508;28;20048;-83
2021/08/24 12:02:48;;;;;;;4.65;2.42;;;23.80;88.20;;;;;;5047642;28;20417;-83
2021/08/24 12:05:24;;;;;;;3.80;2.17;;;23.80;89.10;;;;;;5047241;28;20464;-83
2021/08/24 12:08:01;;;;;;;3.80;2.20;;;23.80;86.20;;;;;;5059600;28;20549;-82
2021/08/24 12:10:31;;;;;;;2.80;1.88;;;23.90;86.60;;;;;;5059795;28;20407;-82
2021/08/24 12:13:04;;;;;;;3.78;2.30;;;23.90;87.10;;;;;;5057830;28;20528;-83
2021/08/24 12:15:40;;;;;;;3.70;2.30;;;24.00;87.50;;;;;;5075557;28;20114;-85
2021/08/24 12:18:11;;;;;;;3.22;2.22;;;24.00;85.70;;;;;;5057524;28;20687;-83
2021/08/24 12:20:50;;;;;;;3.00;1.85;;;24.10;86.20;;;;;;5056236;28;20036;-83
2021/08/24 12:23:40;;;;;;;4.50;2.03;;;24.10;84.80;;;;;;5076263;28;20111;-83
2021/08/24 12:26:24;;;;;;;3.50;2.35;;;24.20;83.50;;;;;;5046073;28;20025;-83
2021/08/24 12:28:52;;;;;;;3.60;2.10;;;24.20;84.90;;;;;;5057612;28;20024;-83
2021/08/24 12:31:29;;;;;;;5.45;2.42;;;24.30;86.10;;;;;;5055100;28;20063;-84
2021/08/24 12:33:55;;;;;;;4.13;2.10;;;24.30;83.90;;;;;;5068691;28;20028;-83
2021/08/24 12:36:24;;;;;;;3.80;2.40;;;24.30;84.50;;;;;;5027408;28;20025;-84
2021/08/24 12:38:57;;;;;;;3.53;2.38;;;24.40;84.80;;;;;;5074434;28;20035;-82
2021/08/24 12:41:31;;;;;;;4.05;2.30;;;24.50;84.90;;;;;;5072746;28;20025;-83
2021/08/24 12:44:15;;;;;;;4.50;2.53;;;24.50;83.60;;;;;;5058582;28;20055;-84
2021/08/24 12:46:49;;;;;;;4.28;2.20;;;24.60;81.60;;;;;;5038232;28;20083;-83
2021/08/24 12:49:15;;;;;;;3.90;2.45;;;24.60;83.20;;;;;;5040672;28;20025;-82
2021/08/24 12:51:45;;;;;;;3.42;2.30;;;24.70;83.20;;;;;;5056075;28;20021;-82
2021/08/24 12:54:12;;;;;;;5.03;2.90;;;24.70;82.70;;;;;;5060276;28;20047;-79
2021/08/24 12:56:45;;;;;;;5.75;2.83;;;24.80;80.40;;;;;;5048968;28;20025;-83
2021/08/24 12:59:30;;;;;;;4.85;2.80;;;24.80;82.10;;;;;;5056193;28;20032;-87
2021/08/24 13:02:19;;;;;;;3.85;2.40;;;24.90;82.50;;;;;;5055854;28;20029;-81
2021/08/24 13:05:01;;;;;;;3.72;2.70;;;24.90;82.40;;;;;;5044821;28;20039;-78
2021/08/24 13:08:08;;;;;;;5.97;2.63;;;25.00;81.10;;;;;;5042989;28;20037;-79
2021/08/24 13:10:39;;;;;;;4.15;2.63;;;25.00;81.40;;;;;;5077895;28;20021;-80
2021/08/24 13:13:28;;;;;;;3.63;2.60;;;25.10;82.40;;;;;;5066497;28;20012;-80
2021/08/24 13:15:59;;;;;;;4.35;2.47;;;25.10;80.80;;;;;;5045507;28;20025;-79
2021/08/24 13:18:26;;;;;;;;;;;25.10;81.00;;;;;;5068748;28;20021;-80
2021/08/24 13:20:54;;;;;;;3.95;2.63;;;25.10;80.50;;;;;;5067030;28;19954;-80
2021/08/24 13:23:19;;;;;;;4.07;2.53;;;25.20;81.90;;;;;;5070088;28;20047;-79
2021/08/24 13:25:56;;;;;;;4.97;2.65;;;25.30;81.30;;;;;;5069304;28;20059;-80